Time;durP1;ratioP1;P1;durP2;ratioP2;P2;SDS_P1;SDS_P2;PMS_P1;PMS_P2;Temp;Humidity;BMP_temperature;BMP_pressure;BME280_temperature;BME280_humidity;BME280_pressure;Samples;Min_cycle;Max_cycle;Signal;HPM_P1;HPM_P2
2023/09/13 00:02:09;;;;;;;6.65;5.35;;;;;;;;;;5045978;28;20472;-81
2023/09/13 00:04:36;;;;;;;6.72;5.68;;;;;;;;;;5027235;28;20430;-81
2023/09/13 00:07:04;;;;;;;6.63;5.60;;;;;;;;;;5026559;28;20427;-81
2023/09/13 00:09:34;;;;;;;6.40;5.60;;;;;;;;;;5028086;28;20485;-80
2023/09/13 00:12:04;;;;;;;7.30;5.85;;;;;;;;;;5033634;28;20441;-81
2023/09/13 00:14:31;;;;;;;6.60;6.00;;;;;;;;;;5034621;28;20431;-83
2023/09/13 00:17:07;;;;;;;7.37;6.40;;;;;;;;;;5036930;28;20430;-83
2023/09/13 00:19:37;;;;;;;6.93;5.88;;;;;;;;;;5041531;28;20430;-81
2023/09/13 00:22:05;;;;;;;7.45;6.60;;;;;;;;;;5036457;28;20435;-81
2023/09/13 00:24:32;;;;;;;6.88;6.20;;;;;;;;;;5027671;28;20799;-80
2023/09/13 00:27:02;;;;;;;9.45;5.72;;;;;;;;;;5028821;28;20435;-82
2023/09/13 00:29:32;;;;;;;7.88;6.10;;;;;;;;;;5028663;28;20442;-81
2023/09/13 00:32:03;;;;;;;6.38;5.60;;;;;;;;;;5022464;28;20509;-81
2023/09/13 00:34:31;;;;;;;6.38;5.20;;;;;;;;;;5025288;28;20458;-80
2023/09/13 00:36:58;;;;;;;6.45;5.85;;;;;;;;;;5029801;28;20486;-80
2023/09/13 00:39:25;;;;;;;7.68;5.13;;;;;;;;;;5021067;28;20454;-80
2023/09/13 00:41:52;;;;;;;6.70;5.05;;;;;;;;;;5032090;28;20427;-81
2023/09/13 00:44:19;;;;;;;6.40;5.22;;;;;;;;;;5028304;28;20943;-80
2023/09/13 00:46:46;;;;;;;5.25;4.75;;;;;;;;;;5033221;28;20546;-81
2023/09/13 00:49:14;;;;;;;5.72;5.13;;;;;;;;;;5028491;28;20453;-81
2023/09/13 00:51:44;;;;;;;5.80;5.30;;;;;;;;;;5029066;28;20430;-82
2023/09/13 00:54:14;;;;;;;6.45;5.72;;;;;;;;;;5025005;28;20433;-85
2023/09/13 00:56:41;;;;;;;8.30;5.95;;;;;;;;;;5046048;28;20459;-84
2023/09/13 00:59:09;;;;;;;6.38;5.78;;;;;;;;;;5028681;28;20921;-84
2023/09/13 01:01:36;;;;;;;6.40;5.68;;;;;;;;;;5030714;28;20437;-83
2023/09/13 01:04:04;;;;;;;6.28;5.57;;;;;;;;;;5048805;28;20794;-82
2023/09/13 01:06:31;;;;;;;6.90;5.60;;;;;;;;;;5027361;28;20434;-81
2023/09/13 01:08:58;;;;;;;5.60;5.10;;;;;;;;;;5027900;28;20466;-80
2023/09/13 01:11:26;;;;;;;8.15;5.53;;;;;;;;;;5034746;28;20446;-80
2023/09/13 01:13:53;;;;;;;7.35;5.78;;;;;;;;;;5030053;28;20544;-80
2023/09/13 01:16:38;;;;;;;7.22;5.97;;;;;;;;;;5027970;28;20917;-81
2023/09/13 01:19:29;;;;;;;7.23;5.47;;;;;;;;;;5042217;28;20450;-82
2023/09/13 01:22:05;;;;;;;7.45;5.47;;;;;;;;;;4995152;28;21371;-84
2023/09/13 01:24:32;;;;;;;5.82;5.32;;;;;;;;;;5027695;28;20451;-84
2023/09/13 01:27:18;;;;;;;5.95;5.35;;;;;;;;;;5044417;28;20470;-84
2023/09/13 01:29:46;;;;;;;6.22;5.00;;;;;;;;;;5028544;28;20438;-84
2023/09/13 01:32:13;;;;;;;5.88;5.38;;;;;;;;;;5043896;28;20431;-81
2023/09/13 01:34:40;;;;;;;6.30;4.97;;;;;;;;;;5028790;28;20530;-82
2023/09/13 01:37:07;;;;;;;6.13;4.32;;;;;;;;;;5048009;28;20504;-80
2023/09/13 01:39:34;;;;;;;5.28;4.78;;;;;;;;;;5034682;28;20442;-82
2023/09/13 01:42:10;;;;;;;4.78;4.45;;;;;;;;;;5029551;28;20927;-83
2023/09/13 01:44:40;;;;;;;4.80;4.40;;;;;;;;;;5035239;28;20461;-82
2023/09/13 01:47:08;;;;;;;5.10;4.60;;;;;;;;;;5046401;28;20435;-83
2023/09/13 01:49:36;;;;;;;4.45;4.05;;;;;;;;;;5027657;28;20443;-78
2023/09/13 01:52:04;;;;;;;4.40;4.00;;;;;;;;;;5030952;28;20434;-80
2023/09/13 01:54:35;;;;;;;4.65;4.25;;;;;;;;;;5023040;28;20441;-84
2023/09/13 01:57:03;;;;;;;6.03;4.32;;;;;;;;;;5022722;28;20439;-82
2023/09/13 01:59:31;;;;;;;4.97;3.70;;;;;;;;;;5056530;28;20435;-85
2023/09/13 02:01:58;;;;;;;4.80;3.72;;;;;;;;;;5034069;28;20428;-82
2023/09/13 02:04:31;;;;;;;3.60;3.40;;;;;;;;;;5032734;28;20431;-82
2023/09/13 02:06:59;;;;;;;6.53;4.00;;;;;;;;;;5035929;28;20915;-85
2023/09/13 02:09:27;;;;;;;4.28;3.30;;;;;;;;;;5038382;28;20514;-80
2023/09/13 02:11:54;;;;;;;3.85;3.55;;;;;;;;;;5038090;28;20503;-80
2023/09/13 02:14:21;;;;;;;3.80;3.50;;;;;;;;;;5047041;28;20443;-84
2023/09/13 02:16:48;;;;;;;3.38;3.10;;;;;;;;;;5033746;28;20441;-84
2023/09/13 02:19:17;;;;;;;3.35;3.00;;;;;;;;;;5035982;28;22395;-79
2023/09/13 02:21:47;;;;;;;2.97;2.70;;;;;;;;;;5036713;28;20606;-84
2023/09/13 02:24:14;;;;;;;3.90;2.60;;;;;;;;;;5036731;28;20427;-83
2023/09/13 02:26:41;;;;;;;3.00;2.70;;;;;;;;;;5035735;28;20431;-80
2023/09/13 02:29:08;;;;;;;4.40;2.90;;;;;;;;;;5037138;28;20459;-84
2023/09/13 02:31:36;;;;;;;3.42;2.70;;;;;;;;;;5032544;28;20433;-78
2023/09/13 02:34:03;;;;;;;3.03;2.83;;;;;;;;;;5031882;28;20454;-82
2023/09/13 02:36:32;;;;;;;5.93;2.65;;;;;;;;;;5029011;28;20510;-80
2023/09/13 02:38:59;;;;;;;4.85;2.60;;;;;;;;;;5030699;28;20442;-82
2023/09/13 02:41:26;;;;;;;2.58;2.38;;;;;;;;;;5028337;28;20437;-78
2023/09/13 02:43:53;;;;;;;2.50;2.40;;;;;;;;;;5032599;28;20441;-78
2023/09/13 02:46:21;;;;;;;2.60;2.50;;;;;;;;;;5027904;28;20439;-81
2023/09/13 02:48:48;;;;;;;3.30;2.60;;;;;;;;;;5031050;28;20423;-78
2023/09/13 02:51:15;;;;;;;2.63;2.42;;;;;;;;;;5030105;28;20976;-84
2023/09/13 02:53:42;;;;;;;2.20;2.10;;;;;;;;;;5031440;28;20821;-84
2023/09/13 02:56:10;;;;;;;2.70;2.50;;;;;;;;;;5029026;28;20431;-80
2023/09/13 02:58:37;;;;;;;2.80;2.43;;;;;;;;;;5022076;28;20434;-79
2023/09/13 03:01:10;;;;;;;2.75;2.45;;;;;;;;;;5035574;28;20494;-75
2023/09/13 03:03:38;;;;;;;2.83;2.40;;;;;;;;;;5034228;28;20431;-83
2023/09/13 03:06:13;;;;;;;2.40;2.30;;;;;;;;;;5035437;28;20429;-79
2023/09/13 03:08:40;;;;;;;3.00;2.58;;;;;;;;;;5029607;28;20493;-77
2023/09/13 03:11:11;;;;;;;2.90;2.42;;;;;;;;;;5029252;28;20518;-81
2023/09/13 03:13:38;;;;;;;2.53;2.13;;;;;;;;;;5028824;28;20960;-82
2023/09/13 03:16:11;;;;;;;2.30;2.15;;;;;;;;;;5042554;28;20430;-82
2023/09/13 03:18:39;;;;;;;4.40;2.40;;;;;;;;;;5028070;28;20790;-83
2023/09/13 03:21:08;;;;;;;2.38;2.28;;;;;;;;;;5032343;28;20435;-83
2023/09/13 03:23:38;;;;;;;2.67;2.40;;;;;;;;;;5032568;28;20514;-82
2023/09/13 03:26:13;;;;;;;2.20;2.10;;;;;;;;;;5028384;28;20493;-82
2023/09/13 03:28:40;;;;;;;3.63;2.40;;;;;;;;;;5044689;28;20789;-83
2023/09/13 03:31:11;;;;;;;2.50;2.30;;;;;;;;;;5033725;28;20462;-81
2023/09/13 03:33:39;;;;;;;3.05;2.35;;;;;;;;;;5032877;28;20542;-80
2023/09/13 03:36:08;;;;;;;2.50;2.03;;;;;;;;;;5037658;28;20464;-82
2023/09/13 03:38:39;;;;;;;2.20;2.10;;;;;;;;;;5028245;28;20446;-83
2023/09/13 03:41:06;;;;;;;2.30;2.10;;;;;;;;;;5032362;28;20797;-75
2023/09/13 03:43:34;;;;;;;2.15;2.05;;;;;;;;;;5028805;28;21409;-80
2023/09/13 03:46:01;;;;;;;2.42;2.15;;;;;;;;;;5031199;28;20470;-81
2023/09/13 03:48:30;;;;;;;3.97;2.40;;;;;;;;;;5029642;28;20940;-80
2023/09/13 03:50:57;;;;;;;2.88;2.15;;;;;;;;;;5034887;28;20588;-80
2023/09/13 03:53:25;;;;;;;3.30;2.10;;;;;;;;;;5044255;28;20534;-82
2023/09/13 03:56:04;;;;;;;2.53;2.23;;;;;;;;;;5050298;28;20524;-81
2023/09/13 03:58:32;;;;;;;2.33;2.22;;;;;;;;;;5028836;28;20947;-82
2023/09/13 04:00:59;;;;;;;5.00;2.03;;;;;;;;;;5032685;28;21148;-81
2023/09/13 04:03:28;;;;;;;2.10;2.00;;;;;;;;;;5041139;28;20438;-81
2023/09/13 04:05:55;;;;;;;2.27;2.13;;;;;;;;;;5024188;28;21129;-78
2023/09/13 04:08:22;;;;;;;2.30;2.10;;;;;;;;;;5025483;28;20462;-80
2023/09/13 04:10:50;;;;;;;2.50;2.40;;;;;;;;;;5021436;28;21192;-81
2023/09/13 04:13:17;;;;;;;3.13;2.20;;;;;;;;;;5028027;28;20470;-82
2023/09/13 04:15:45;;;;;;;2.50;2.30;;;;;;;;;;5022431;28;20522;-81
2023/09/13 04:18:13;;;;;;;3.10;2.50;;;;;;;;;;5020655;28;20442;-79
2023/09/13 04:20:42;;;;;;;2.40;2.20;;;;;;;;;;5023627;28;20427;-82
2023/09/13 04:23:09;;;;;;;2.35;2.15;;;;;;;;;;5044939;28;20482;-78
2023/09/13 04:25:36;;;;;;;2.90;2.47;;;;;;;;;;5013856;28;20522;-74
2023/09/13 04:28:04;;;;;;;4.13;2.72;;;;;;;;;;5011996;28;20434;-74
2023/09/13 04:30:31;;;;;;;4.88;2.80;;;;;;;;;;5017785;28;20466;-74
2023/09/13 04:33:02;;;;;;;2.90;2.70;;;;;;;;;;5016668;28;20945;-74
2023/09/13 04:35:29;;;;;;;3.35;3.00;;;;;;;;;;5017329;28;20438;-74
2023/09/13 04:37:57;;;;;;;3.03;2.78;;;;;;;;;;5021516;28;20468;-74
2023/09/13 04:40:24;;;;;;;4.65;3.03;;;;;;;;;;5014407;28;20445;-74
2023/09/13 04:42:55;;;;;;;3.40;3.03;;;;;;;;;;5018467;28;20439;-75
2023/09/13 04:45:23;;;;;;;2.90;2.67;;;;;;;;;;5017862;28;20440;-74
2023/09/13 04:47:50;;;;;;;3.08;2.88;;;;;;;;;;5017105;28;20502;-74
2023/09/13 04:50:17;;;;;;;4.88;3.17;;;;;;;;;;5020931;28;20458;-74
2023/09/13 04:52:44;;;;;;;2.80;2.70;;;;;;;;;;5021161;28;21065;-73
2023/09/13 04:55:18;;;;;;;2.83;2.67;;;;;;;;;;5018123;28;20435;-74
2023/09/13 04:57:46;;;;;;;2.92;2.72;;;;;;;;;;5048455;28;20443;-74
2023/09/13 05:00:14;;;;;;;4.88;2.97;;;;;;;;;;5016624;28;20443;-74
2023/09/13 05:02:41;;;;;;;4.90;3.13;;;;;;;;;;5058008;28;20475;-75
2023/09/13 05:05:09;;;;;;;4.20;3.27;;;;;;;;;;5026172;28;20440;-74
2023/09/13 05:07:36;;;;;;;3.60;3.30;;;;;;;;;;5026642;28;20496;-73
2023/09/13 05:10:03;;;;;;;4.97;3.40;;;;;;;;;;5029430;28;20440;-74
2023/09/13 05:12:30;;;;;;;4.88;3.22;;;;;;;;;;5027309;28;20437;-74
2023/09/13 05:15:00;;;;;;;6.22;3.40;;;;;;;;;;5034346;28;20518;-73
2023/09/13 05:17:29;;;;;;;3.92;3.42;;;;;;;;;;5055831;28;20439;-74
2023/09/13 05:19:56;;;;;;;4.32;3.60;;;;;;;;;;5028394;28;20431;-75
2023/09/13 05:22:24;;;;;;;4.65;3.83;;;;;;;;;;5026334;28;20442;-74
2023/09/13 05:24:54;;;;;;;3.70;3.40;;;;;;;;;;5029568;28;20959;-74
2023/09/13 05:27:21;;;;;;;4.53;3.33;;;;;;;;;;5021648;28;20465;-74
2023/09/13 05:29:48;;;;;;;3.72;3.08;;;;;;;;;;5021851;28;20438;-73
2023/09/13 05:32:15;;;;;;;3.28;3.08;;;;;;;;;;5025655;28;20873;-74
2023/09/13 05:34:43;;;;;;;3.97;3.63;;;;;;;;;;5024882;28;20580;-73
2023/09/13 05:37:10;;;;;;;3.72;3.40;;;;;;;;;;5026536;28;20440;-73
2023/09/13 05:39:38;;;;;;;3.60;3.10;;;;;;;;;;5022066;28;20436;-73
2023/09/13 05:42:05;;;;;;;3.42;2.90;;;;;;;;;;5009772;28;20537;-73
2023/09/13 05:44:33;;;;;;;3.10;2.90;;;;;;;;;;5008483;28;21008;-74
2023/09/13 05:47:00;;;;;;;3.53;3.22;;;;;;;;;;5013756;28;20441;-74
2023/09/13 05:49:29;;;;;;;3.00;2.80;;;;;;;;;;5014022;28;20432;-74
2023/09/13 05:51:56;;;;;;;3.30;2.72;;;;;;;;;;5030426;28;20429;-74
2023/09/13 05:54:24;;;;;;;4.50;2.95;;;;;;;;;;5041813;28;20968;-74
2023/09/13 05:56:56;;;;;;;3.80;3.08;;;;;;;;;;5025187;28;20469;-74
2023/09/13 05:59:27;;;;;;;3.10;2.90;;;;;;;;;;5027308;28;21124;-74
2023/09/13 06:01:54;;;;;;;3.20;3.00;;;;;;;;;;5028295;28;20440;-74
2023/09/13 06:04:21;;;;;;;3.45;3.13;;;;;;;;;;5024417;28;20469;-74
2023/09/13 06:06:48;;;;;;;3.40;3.10;;;;;;;;;;5024937;28;20443;-74
2023/09/13 06:09:15;;;;;;;3.38;3.00;;;;;;;;;;5029569;28;20425;-75
2023/09/13 06:11:43;;;;;;;3.10;2.90;;;;;;;;;;5030111;28;20431;-74
2023/09/13 06:14:12;;;;;;;3.65;3.28;;;;;;;;;;5024695;28;20446;-74
2023/09/13 06:16:39;;;;;;;3.88;3.15;;;;;;;;;;5041403;28;20445;-74
2023/09/13 06:19:06;;;;;;;3.40;3.10;;;;;;;;;;5026625;28;20528;-74
2023/09/13 06:21:35;;;;;;;3.30;3.00;;;;;;;;;;5027252;28;20429;-76
2023/09/13 06:24:02;;;;;;;3.35;3.05;;;;;;;;;;5027906;28;20568;-75
2023/09/13 06:26:29;;;;;;;2.97;2.67;;;;;;;;;;5025851;28;20438;-77
2023/09/13 06:28:59;;;;;;;2.85;2.65;;;;;;;;;;5025528;28;20563;-75
2023/09/13 06:31:27;;;;;;;3.40;2.80;;;;;;;;;;5022117;28;20427;-75
2023/09/13 06:34:01;;;;;;;2.25;2.15;;;;;;;;;;5030437;28;20430;-76
2023/09/13 06:36:31;;;;;;;2.28;2.15;;;;;;;;;;5030481;28;20430;-76
2023/09/13 06:38:59;;;;;;;4.30;2.35;;;;;;;;;;5029573;28;20444;-76
2023/09/13 06:41:26;;;;;;;249.00;227.95;;;;;;;;;;5023460;28;20932;-76
2023/09/13 06:43:54;;;;;;;33.10;30.70;;;;;;;;;;5027164;28;20915;-77
2023/09/13 06:46:36;;;;;;;2.83;2.35;;;;;;;;;;5022954;28;20514;-75
2023/09/13 06:49:04;;;;;;;2.50;2.20;;;;;;;;;;5023434;28;20425;-75
2023/09/13 06:51:36;;;;;;;125.45;114.20;;;;;;;;;;5027633;28;21114;-74
2023/09/13 06:54:06;;;;;;;243.25;222.50;;;;;;;;;;5028540;28;20884;-74
2023/09/13 06:56:36;;;;;;;29.42;22.60;;;;;;;;;;5025961;28;20450;-74
2023/09/13 06:59:07;;;;;;;2.60;2.40;;;;;;;;;;5027417;28;20893;-77
2023/09/13 07:01:38;;;;;;;2.90;2.50;;;;;;;;;;5040569;28;20438;-73
2023/09/13 07:04:25;;;;;;;3.00;2.60;;;;;;;;;;5034767;28;20419;-76
2023/09/13 07:07:02;;;;;;;3.00;2.53;;;;;;;;;;5025449;28;20439;-75
2023/09/13 07:09:30;;;;;;;2.72;2.53;;;;;;;;;;5025636;28;20515;-73
2023/09/13 07:11:58;;;;;;;3.15;2.95;;;;;;;;;;5042339;28;20502;-75
2023/09/13 07:14:28;;;;;;;3.27;2.53;;;;;;;;;;5028490;28;21001;-74
2023/09/13 07:16:55;;;;;;;23.05;18.83;;;;;;;;;;5030779;28;20910;-74
2023/09/13 07:19:22;;;;;;;5.30;2.55;;;;;;;;;;5030807;28;20607;-74
2023/09/13 07:21:50;;;;;;;3.38;2.53;;;;;;;;;;5024992;28;20439;-73
2023/09/13 07:24:17;;;;;;;482.67;439.20;;;;;;;;;;5019944;28;20442;-74
2023/09/13 07:26:44;;;;;;;4.35;2.60;;;;;;;;;;5022623;28;20422;-74
2023/09/13 07:29:12;;;;;;;811.10;737.42;;;;;;;;;;5028729;28;20484;-76
2023/09/13 07:31:42;;;;;;;88.53;81.82;;;;;;;;;;5031565;28;20427;-76
2023/09/13 07:34:10;;;;;;;3.58;3.28;;;;;;;;;;5024709;28;20437;-74
2023/09/13 07:36:37;;;;;;;250.00;226.68;;;;;;;;;;5018077;28;20431;-73
2023/09/13 07:39:06;;;;;;;3.58;2.88;;;;;;;;;;5026278;28;20527;-74
2023/09/13 07:41:36;;;;;;;6.28;3.58;;;;;;;;;;5024502;28;20437;-74
2023/09/13 07:44:03;;;;;;;89.95;82.45;;;;;;;;;;5024144;28;20469;-75
2023/09/13 07:46:30;;;;;;;210.73;192.45;;;;;;;;;;5016291;28;20430;-74
2023/09/13 07:48:58;;;;;;;5.80;2.45;;;;;;;;;;5020983;28;20438;-75
2023/09/13 07:51:25;;;;;;;3.38;3.08;;;;;;;;;;5030041;28;20547;-75
2023/09/13 07:53:53;;;;;;;9.52;8.73;;;;;;;;;;5027287;28;20431;-73
2023/09/13 07:56:21;;;;;;;49.90;46.40;;;;;;;;;;5023707;28;20493;-74
2023/09/13 07:58:48;;;;;;;256.67;235.13;;;;;;;;;;5018518;28;20438;-75
2023/09/13 08:01:18;;;;;;;1022.28;908.88;;;;;;;;;;5022682;28;20431;-75
2023/09/13 08:03:45;;;;;;;902.40;819.60;;;;;;;;;;5029177;28;20431;-75
2023/09/13 08:06:13;;;;;;;952.13;847.78;;;;;;;;;;5025011;28;20908;-74
2023/09/13 08:08:40;;;;;;;704.17;637.80;;;;;;;;;;5021464;28;20532;-73
2023/09/13 08:11:07;;;;;;;886.70;793.03;;;;;;;;;;5022990;28;20426;-74
2023/09/13 08:13:34;;;;;;;70.90;63.55;;;;;;;;;;5056645;28;20437;-74
2023/09/13 08:16:02;;;;;;;333.20;302.48;;;;;;;;;;5026435;28;20462;-73
2023/09/13 08:18:29;;;;;;;842.92;713.35;;;;;;;;;;5025804;28;20430;-75
2023/09/13 08:20:56;;;;;;;944.57;757.57;;;;;;;;;;5030560;28;20512;-74
2023/09/13 08:23:25;;;;;;;189.30;172.17;;;;;;;;;;5024252;28;20427;-74
2023/09/13 08:25:54;;;;;;;3.50;3.20;;;;;;;;;;5022414;28;20535;-74
2023/09/13 08:28:43;;;;;;;3.95;3.47;;;;;;;;;;5024082;28;20435;-74
2023/09/13 08:31:10;;;;;;;3.50;3.30;;;;;;;;;;5037839;28;20435;-76
2023/09/13 08:33:40;;;;;;;3.40;3.10;;;;;;;;;;5024458;28;20520;-75
2023/09/13 08:36:07;;;;;;;3.83;3.53;;;;;;;;;;5029973;28;20780;-72
2023/09/13 08:38:34;;;;;;;4.97;4.03;;;;;;;;;;5035146;28;20497;-75
2023/09/13 08:41:03;;;;;;;4.18;3.85;;;;;;;;;;5027949;28;20462;-74
2023/09/13 08:43:35;;;;;;;4.75;3.58;;;;;;;;;;5025554;28;20489;-75
2023/09/13 08:46:06;;;;;;;888.90;704.85;;;;;;;;;;5023269;28;20917;-75
2023/09/13 08:48:34;;;;;;;883.95;690.17;;;;;;;;;;5037756;28;20449;-74
2023/09/13 08:51:04;;;;;;;875.00;683.17;;;;;;;;;;5031483;28;20485;-73
2023/09/13 08:53:32;;;;;;;859.80;681.28;;;;;;;;;;5022488;28;20542;-73
2023/09/13 08:56:00;;;;;;;856.03;688.55;;;;;;;;;;5028625;28;20437;-75
2023/09/13 08:58:27;;;;;;;879.90;693.70;;;;;;;;;;5024125;28;20433;-75
2023/09/13 09:00:55;;;;;;;536.78;481.92;;;;;;;;;;5029836;28;21250;-74
2023/09/13 09:03:24;;;;;;;1010.60;916.38;;;;;;;;;;5023000;28;20431;-73
2023/09/13 09:05:55;;;;;;;1009.40;879.85;;;;;;;;;;5026134;28;21024;-73
2023/09/13 09:08:24;;;;;;;967.25;843.38;;;;;;;;;;5023054;28;20430;-74
2023/09/13 09:10:57;;;;;;;952.95;816.45;;;;;;;;;;5029643;28;20914;-73
2023/09/13 09:13:25;;;;;;;970.92;843.70;;;;;;;;;;5031373;28;20439;-73
2023/09/13 09:15:55;;;;;;;977.42;851.08;;;;;;;;;;5018942;28;20558;-73
2023/09/13 09:18:23;;;;;;;950.08;819.45;;;;;;;;;;5021332;28;20451;-73
2023/09/13 09:20:50;;;;;;;961.15;826.30;;;;;;;;;;5030937;28;20431;-73
2023/09/13 09:23:25;;;;;;;975.42;851.83;;;;;;;;;;5026694;28;20435;-74
2023/09/13 09:25:53;;;;;;;927.30;768.17;;;;;;;;;;5024675;28;20950;-73
2023/09/13 09:28:24;;;;;;;940.63;781.00;;;;;;;;;;5031460;28;20809;-74
2023/09/13 09:30:51;;;;;;;963.10;819.43;;;;;;;;;;5026578;28;20432;-73
2023/09/13 09:33:28;;;;;;;976.70;837.13;;;;;;;;;;5025932;28;20437;-74
2023/09/13 09:35:56;;;;;;;920.38;747.00;;;;;;;;;;5041764;28;20434;-73
2023/09/13 09:38:30;;;;;;;954.38;802.67;;;;;;;;;;5028926;28;20515;-74
2023/09/13 09:40:58;;;;;;;975.63;851.40;;;;;;;;;;5031704;28;20433;-76
2023/09/13 09:43:26;;;;;;;985.47;876.05;;;;;;;;;;5023769;28;20605;-73
2023/09/13 09:45:53;;;;;;;985.28;876.22;;;;;;;;;;5027259;28;20523;-75
2023/09/13 09:48:23;;;;;;;988.60;879.47;;;;;;;;;;5023059;28;21030;-73
2023/09/13 09:50:52;;;;;;;989.75;880.72;;;;;;;;;;5027231;28;20940;-73
2023/09/13 09:53:23;;;;;;;1029.60;916.95;;;;;;;;;;5057050;28;20430;-74
2023/09/13 09:55:51;;;;;;;1143.78;999.90;;;;;;;;;;5023882;28;20431;-74
2023/09/13 09:58:18;;;;;;;1014.73;904.60;;;;;;;;;;5029498;28;20429;-74
2023/09/13 10:00:52;;;;;;;1039.22;927.83;;;;;;;;;;5041753;28;22066;-74
2023/09/13 10:03:21;;;;;;;1037.50;925.90;;;;;;;;;;5027121;28;20418;-73
2023/09/13 10:05:53;;;;;;;1082.78;969.30;;;;;;;;;;5024690;28;20522;-74
2023/09/13 10:08:35;;;;;;;1031.60;920.80;;;;;;;;;;5024126;28;20518;-74
2023/09/13 10:11:02;;;;;;;1092.55;978.53;;;;;;;;;;5019213;28;20826;-76
2023/09/13 10:13:32;;;;;;;1094.25;980.20;;;;;;;;;;5025052;28;20447;-75
2023/09/13 10:16:04;;;;;;;1121.50;999.90;;;;;;;;;;5028339;28;20426;-75
2023/09/13 10:18:32;;;;;;;1101.28;987.55;;;;;;;;;;5024454;28;20765;-73
2023/09/13 10:21:00;;;;;;;1088.40;975.83;;;;;;;;;;5030496;28;20432;-74
2023/09/13 10:23:39;;;;;;;1078.82;966.40;;;;;;;;;;5031731;28;20426;-74
2023/09/13 10:26:10;;;;;;;1092.40;979.03;;;;;;;;;;5028125;28;20836;-73
2023/09/13 10:28:39;;;;;;;1047.78;936.97;;;;;;;;;;5029481;28;20941;-75
2023/09/13 10:31:15;;;;;;;1062.90;951.55;;;;;;;;;;5030541;28;20429;-71
2023/09/13 10:33:45;;;;;;;1032.65;922.85;;;;;;;;;;5028786;28;20948;-73
2023/09/13 10:36:16;;;;;;;1142.67;999.90;;;;;;;;;;5025452;28;20456;-72
2023/09/13 10:38:46;;;;;;;1082.32;969.65;;;;;;;;;;5020518;28;20468;-71
2023/09/13 10:41:17;;;;;;;1014.53;905.00;;;;;;;;;;5041413;28;21022;-72
2023/09/13 10:43:49;;;;;;;1045.78;935.05;;;;;;;;;;5033157;28;20837;-74
2023/09/13 10:46:17;;;;;;;1031.40;920.90;;;;;;;;;;5021979;28;20431;-73
2023/09/13 10:48:45;;;;;;;1027.75;917.50;;;;;;;;;;5025620;28;20431;-72
2023/09/13 10:51:13;;;;;;;1018.85;909.15;;;;;;;;;;5027172;28;20438;-72
2023/09/13 10:53:41;;;;;;;1020.45;910.78;;;;;;;;;;5033147;28;20522;-72
2023/09/13 10:56:11;;;;;;;978.77;870.63;;;;;;;;;;5026313;28;20440;-75
2023/09/13 10:58:39;;;;;;;935.90;798.97;;;;;;;;;;5023342;28;20434;-72
2023/09/13 11:01:07;;;;;;;961.40;845.22;;;;;;;;;;5027402;28;20552;-71
2023/09/13 11:03:34;;;;;;;949.92;819.17;;;;;;;;;;5029956;28;20493;-72
2023/09/13 11:06:02;;;;;;;933.92;785.30;;;;;;;;;;5032093;28;20426;-72
2023/09/13 11:08:30;;;;;;;939.47;793.50;;;;;;;;;;5041198;28;20435;-71
2023/09/13 11:11:07;;;;;;;934.35;786.22;;;;;;;;;;5031682;28;20525;-70
2023/09/13 11:13:34;;;;;;;939.75;795.35;;;;;;;;;;5027181;28;20518;-73
2023/09/13 11:16:03;;;;;;;925.30;770.07;;;;;;;;;;5028229;28;20482;-72
2023/09/13 11:18:31;;;;;;;915.80;749.27;;;;;;;;;;5041099;28;20774;-71
2023/09/13 11:20:58;;;;;;;939.28;781.58;;;;;;;;;;5024974;28;20426;-72
2023/09/13 11:23:25;;;;;;;919.67;760.20;;;;;;;;;;5042939;28;20425;-73
2023/09/13 11:26:05;;;;;;;926.20;766.28;;;;;;;;;;5033587;28;20922;-71
2023/09/13 11:28:38;;;;;;;938.50;782.53;;;;;;;;;;5028960;28;20517;-72
2023/09/13 11:31:07;;;;;;;936.30;775.05;;;;;;;;;;5057707;28;20809;-73
2023/09/13 11:33:58;;;;;;;922.72;756.08;;;;;;;;;;5028712;28;20801;-71
2023/09/13 11:36:27;;;;;;;932.53;776.63;;;;;;;;;;5025972;28;20437;-73
2023/09/13 11:38:56;;;;;;;915.00;747.17;;;;;;;;;;5028235;28;20439;-73
2023/09/13 11:41:23;;;;;;;920.17;754.75;;;;;;;;;;5031064;28;20437;-71
2023/09/13 11:43:51;;;;;;;923.10;762.47;;;;;;;;;;5033548;28;20442;-72
2023/09/13 11:46:33;;;;;;;922.65;758.05;;;;;;;;;;5028445;28;20425;-72
2023/09/13 11:49:01;;;;;;;929.50;775.47;;;;;;;;;;5029020;28;20429;-72
2023/09/13 11:51:46;;;;;;;912.28;736.72;;;;;;;;;;5027636;28;20450;-72
2023/09/13 11:54:15;;;;;;;916.50;752.45;;;;;;;;;;5026497;28;20516;-72
2023/09/13 11:56:48;;;;;;;927.08;760.80;;;;;;;;;;5025493;28;20438;-72
2023/09/13 11:59:17;;;;;;;925.53;756.35;;;;;;;;;;5026994;28;20441;-73
2023/09/13 12:01:48;;;;;;;922.47;749.78;;;;;;;;;;5029632;28;20439;-72
2023/09/13 12:04:22;;;;;;;930.60;759.13;;;;;;;;;;5027481;28;20429;-72
2023/09/13 12:07:09;;;;;;;942.80;787.78;;;;;;;;;;5030477;28;20422;-73
2023/09/13 12:09:38;;;;;;;932.22;771.15;;;;;;;;;;5020817;28;20439;-72
2023/09/13 12:12:08;;;;;;;931.30;763.15;;;;;;;;;;5020350;28;20438;-73
2023/09/13 12:14:39;;;;;;;953.20;825.43;;;;;;;;;;5019274;28;20443;-73
2023/09/13 12:17:12;;;;;;;952.67;824.80;;;;;;;;;;5022945;28;20517;-72
2023/09/13 12:19:40;;;;;;;976.50;868.58;;;;;;;;;;5026634;28;20509;-72
2023/09/13 12:22:16;;;;;;;1005.88;895.83;;;;;;;;;;5017029;28;20434;-73
2023/09/13 12:24:52;;;;;;;1012.08;901.08;;;;;;;;;;5024834;28;20991;-73
2023/09/13 12:27:20;;;;;;;1015.77;904.57;;;;;;;;;;5023549;28;20436;-72
2023/09/13 12:29:47;;;;;;;1082.30;968.53;;;;;;;;;;5026048;28;21175;-72
2023/09/13 12:32:16;;;;;;;1093.95;979.30;;;;;;;;;;5029356;28;20523;-72
2023/09/13 12:34:43;;;;;;;1089.68;975.97;;;;;;;;;;5021842;28;20434;-72
2023/09/13 12:37:10;;;;;;;1042.03;931.58;;;;;;;;;;5028274;28;20466;-73
2023/09/13 12:39:37;;;;;;;1175.88;999.90;;;;;;;;;;5018109;28;21238;-72
2023/09/13 12:42:08;;;;;;;1179.28;999.90;;;;;;;;;;5026513;28;20441;-72
2023/09/13 12:44:38;;;;;;;1181.20;999.90;;;;;;;;;;5026405;28;20455;-73
2023/09/13 12:47:07;;;;;;;1185.97;999.90;;;;;;;;;;5029932;28;20466;-71
2023/09/13 12:49:38;;;;;;;1170.65;999.90;;;;;;;;;;5025816;28;20523;-72
2023/09/13 12:52:05;;;;;;;1140.72;999.90;;;;;;;;;;5030570;28;20545;-74
2023/09/13 12:54:36;;;;;;;1151.93;999.90;;;;;;;;;;5029013;28;20435;-73
2023/09/13 12:57:06;;;;;;;1120.97;999.90;;;;;;;;;;5034048;28;20819;-71
2023/09/13 12:59:43;;;;;;;1125.63;999.90;;;;;;;;;;5023458;28;20525;-72
2023/09/13 13:02:15;;;;;;;1126.63;999.90;;;;;;;;;;5033021;28;20433;-71
2023/09/13 13:04:42;;;;;;;1073.25;958.20;;;;;;;;;;5034263;28;20434;-71
2023/09/13 13:07:10;;;;;;;958.77;849.27;;;;;;;;;;5039669;28;20433;-71
2023/09/13 13:09:40;;;;;;;980.28;871.53;;;;;;;;;;5024638;28;20851;-72
2023/09/13 13:12:14;;;;;;;1000.35;890.45;;;;;;;;;;5027106;28;20438;-73
2023/09/13 13:14:48;;;;;;;1040.85;928.45;;;;;;;;;;5031817;28;20433;-74
2023/09/13 13:17:16;;;;;;;1072.22;958.40;;;;;;;;;;5028152;28;20441;-72
2023/09/13 13:19:43;;;;;;;1090.65;976.05;;;;;;;;;;5029271;28;20923;-73
2023/09/13 13:22:23;;;;;;;1085.40;970.90;;;;;;;;;;5024056;28;20435;-72
2023/09/13 13:24:51;;;;;;;1091.15;975.75;;;;;;;;;;5023894;28;20449;-72
2023/09/13 13:27:19;;;;;;;1112.57;995.97;;;;;;;;;;5024866;28;20829;-72
2023/09/13 13:29:47;;;;;;;1143.85;999.90;;;;;;;;;;5035433;28;20465;-72
2023/09/13 13:32:15;;;;;;;1186.22;999.90;;;;;;;;;;5024656;28;20976;-71
2023/09/13 13:34:45;;;;;;;1237.23;999.90;;;;;;;;;;5027019;28;20515;-72
2023/09/13 13:37:15;;;;;;;1179.27;999.90;;;;;;;;;;5037543;28;20438;-76
2023/09/13 13:39:42;;;;;;;1202.73;999.90;;;;;;;;;;5034534;28;20945;-75
2023/09/13 13:42:10;;;;;;;1183.25;999.90;;;;;;;;;;5037831;28;20529;-75
2023/09/13 13:44:38;;;;;;;1229.95;999.90;;;;;;;;;;5032362;28;20540;-76
2023/09/13 13:47:05;;;;;;;1219.70;999.90;;;;;;;;;;5033790;28;20456;-75
2023/09/13 13:49:32;;;;;;;1199.32;999.90;;;;;;;;;;5027167;28;21021;-75
2023/09/13 13:51:59;;;;;;;1223.53;999.90;;;;;;;;;;5037445;28;20811;-76
2023/09/13 13:54:27;;;;;;;1195.03;999.90;;;;;;;;;;5027360;28;20467;-75
2023/09/13 13:56:54;;;;;;;1145.95;999.90;;;;;;;;;;5027708;28;20857;-75
2023/09/13 13:59:21;;;;;;;1136.97;999.90;;;;;;;;;;5046335;28;20430;-74
2023/09/13 14:01:49;;;;;;;1125.70;999.90;;;;;;;;;;5026234;28;20493;-76
2023/09/13 14:04:19;;;;;;;1103.47;987.17;;;;;;;;;;5030280;28;20438;-74
2023/09/13 14:06:46;;;;;;;1110.63;994.23;;;;;;;;;;5032266;28;20819;-73
2023/09/13 14:09:18;;;;;;;1145.32;999.90;;;;;;;;;;5029250;28;20450;-77
2023/09/13 14:11:46;;;;;;;1133.38;999.90;;;;;;;;;;5031228;28;20783;-76
2023/09/13 14:14:17;;;;;;;1106.28;989.88;;;;;;;;;;5025163;28;20943;-75
2023/09/13 14:16:44;;;;;;;1108.22;991.95;;;;;;;;;;5027823;28;20427;-77
2023/09/13 14:19:11;;;;;;;1118.60;999.90;;;;;;;;;;5035621;28;20462;-76
2023/09/13 14:21:39;;;;;;;1106.22;990.17;;;;;;;;;;5032323;28;20436;-77
2023/09/13 14:24:07;;;;;;;1132.20;999.90;;;;;;;;;;5029395;28;20514;-77
2023/09/13 14:26:35;;;;;;;1119.85;999.90;;;;;;;;;;5028592;28;20426;-73
2023/09/13 14:29:02;;;;;;;1124.68;999.90;;;;;;;;;;5028200;28;20553;-75